sensor_id;sensor_type;location;lat;lon;timestamp;temperature;humidity
8152;DHT22;4117;53.622;9.958;2023-06-10T00:01:24;15.40;1.00
8152;DHT22;4117;53.622;9.958;2023-06-10T00:03:54;15.30;1.00
8152;DHT22;4117;53.622;9.958;2023-06-10T00:06:21;15.30;1.00
8152;DHT22;4117;53.622;9.958;2023-06-10T00:08:49;15.30;1.00
8152;DHT22;4117;53.622;9.958;2023-06-10T00:11:16;15.30;1.00
8152;DHT22;4117;53.622;9.958;2023-06-10T00:13:43;15.10;1.00
8152;DHT22;4117;53.622;9.958;2023-06-10T00:16:10;15.00;1.00
8152;DHT22;4117;53.622;9.958;2023-06-10T00:18:38;14.90;1.00
8152;DHT22;4117;53.622;9.958;2023-06-10T00:21:06;14.90;1.00
8152;DHT22;4117;53.622;9.958;2023-06-10T00:23:33;14.90;1.00
8152;DHT22;4117;53.622;9.958;2023-06-10T00:26:03;14.80;1.00
8152;DHT22;4117;53.622;9.958;2023-06-10T00:28:30;14.70;1.00
8152;DHT22;4117;53.622;9.958;2023-06-10T00:30:57;14.70;1.00
8152;DHT22;4117;53.622;9.958;2023-06-10T00:33:24;14.70;1.00
8152;DHT22;4117;53.622;9.958;2023-06-10T00:35:51;14.50;1.00
8152;DHT22;4117;53.622;9.958;2023-06-10T00:38:19;14.50;1.00
8152;DHT22;4117;53.622;9.958;2023-06-10T00:40:46;14.60;1.00
8152;DHT22;4117;53.622;9.958;2023-06-10T00:43:13;14.50;1.00
8152;DHT22;4117;53.622;9.958;2023-06-10T00:45:40;14.50;1.00
8152;DHT22;4117;53.622;9.958;2023-06-10T00:48:07;14.40;1.00
8152;DHT22;4117;53.622;9.958;2023-06-10T00:50:34;14.40;1.00
8152;DHT22;4117;53.622;9.958;2023-06-10T00:53:04;14.50;1.00
8152;DHT22;4117;53.622;9.958;2023-06-10T00:55:33;14.50;1.00
8152;DHT22;4117;53.622;9.958;2023-06-10T00:58:01;14.50;1.00
8152;DHT22;4117;53.622;9.958;2023-06-10T01:00:29;14.40;1.00
8152;DHT22;4117;53.622;9.958;2023-06-10T01:02:56;14.50;1.00
8152;DHT22;4117;53.622;9.958;2023-06-10T01:05:24;14.30;1.00
8152;DHT22;4117;53.622;9.958;2023-06-10T01:07:56;14.30;1.00
8152;DHT22;4117;53.622;9.958;2023-06-10T01:10:36;14.40;1.00
8152;DHT22;4117;53.622;9.958;2023-06-10T01:13:07;14.30;1.00
8152;DHT22;4117;53.622;9.958;2023-06-10T01:15:37;14.40;1.00
8152;DHT22;4117;53.622;9.958;2023-06-10T01:18:06;14.30;1.00
8152;DHT22;4117;53.622;9.958;2023-06-10T01:20:35;14.30;1.00
8152;DHT22;4117;53.622;9.958;2023-06-10T01:23:08;14.30;1.00
8152;DHT22;4117;53.622;9.958;2023-06-10T01:25:37;14.20;1.00
8152;DHT22;4117;53.622;9.958;2023-06-10T01:28:10;14.20;1.00
8152;DHT22;4117;53.622;9.958;2023-06-10T01:30:42;14.10;1.00
8152;DHT22;4117;53.622;9.958;2023-06-10T01:33:18;14.10;1.00
8152;DHT22;4117;53.622;9.958;2023-06-10T01:35:50;14.00;1.00
8152;DHT22;4117;53.622;9.958;2023-06-10T01:38:19;14.00;1.00
8152;DHT22;4117;53.622;9.958;2023-06-10T01:40:48;13.90;1.00
8152;DHT22;4117;53.622;9.958;2023-06-10T01:43:16;13.80;1.00
8152;DHT22;4117;53.622;9.958;2023-06-10T01:45:43;13.80;1.00
8152;DHT22;4117;53.622;9.958;2023-06-10T01:48:09;13.80;1.00
8152;DHT22;4117;53.622;9.958;2023-06-10T01:50:36;13.80;1.00
8152;DHT22;4117;53.622;9.958;2023-06-10T01:53:03;13.80;1.00
8152;DHT22;4117;53.622;9.958;2023-06-10T01:55:32;13.70;1.00
8152;DHT22;4117;53.622;9.958;2023-06-10T01:57:59;13.60;1.00
8152;DHT22;4117;53.622;9.958;2023-06-10T02:00:25;13.70;1.00
8152;DHT22;4117;53.622;9.958;2023-06-10T02:02:52;13.70;1.00
8152;DHT22;4117;53.622;9.958;2023-06-10T02:05:19;13.70;1.00
8152;DHT22;4117;53.622;9.958;2023-06-10T02:07:46;13.70;1.00
8152;DHT22;4117;53.622;9.958;2023-06-10T02:10:13;13.70;1.00
8152;DHT22;4117;53.622;9.958;2023-06-10T02:12:41;13.70;1.00
8152;DHT22;4117;53.622;9.958;2023-06-10T02:15:08;13.70;1.00
8152;DHT22;4117;53.622;9.958;2023-06-10T02:17:35;13.70;1.00
8152;DHT22;4117;53.622;9.958;2023-06-10T02:20:03;13.70;1.00
8152;DHT22;4117;53.622;9.958;2023-06-10T02:22:33;13.70;1.00
8152;DHT22;4117;53.622;9.958;2023-06-10T02:25:00;13.70;1.00
8152;DHT22;4117;53.622;9.958;2023-06-10T02:27:27;13.70;1.00
8152;DHT22;4117;53.622;9.958;2023-06-10T02:29:55;13.70;1.00
8152;DHT22;4117;53.622;9.958;2023-06-10T02:32:22;13.70;1.00
8152;DHT22;4117;53.622;9.958;2023-06-10T02:34:49;13.70;1.00
8152;DHT22;4117;53.622;9.958;2023-06-10T02:37:16;13.70;1.00
8152;DHT22;4117;53.622;9.958;2023-06-10T02:39:43;13.60;1.00
8152;DHT22;4117;53.622;9.958;2023-06-10T02:42:10;13.70;1.00
8152;DHT22;4117;53.622;9.958;2023-06-10T02:44:37;13.60;1.00
8152;DHT22;4117;53.622;9.958;2023-06-10T02:47:06;13.60;1.00
8152;DHT22;4117;53.622;9.958;2023-06-10T02:49:33;13.60;1.00
8152;DHT22;4117;53.622;9.958;2023-06-10T02:52:00;13.60;1.00
8152;DHT22;4117;53.622;9.958;2023-06-10T02:54:27;13.60;1.00
8152;DHT22;4117;53.622;9.958;2023-06-10T02:56:54;13.50;1.00
8152;DHT22;4117;53.622;9.958;2023-06-10T02:59:21;13.50;1.00
8152;DHT22;4117;53.622;9.958;2023-06-10T03:01:48;13.50;1.00
8152;DHT22;4117;53.622;9.958;2023-06-10T03:04:17;13.50;1.00
8152;DHT22;4117;53.622;9.958;2023-06-10T03:06:44;13.40;1.00
8152;DHT22;4117;53.622;9.958;2023-06-10T03:09:12;13.40;1.00
8152;DHT22;4117;53.622;9.958;2023-06-10T03:11:39;13.40;1.00
8152;DHT22;4117;53.622;9.958;2023-06-10T03:14:06;13.30;1.00
8152;DHT22;4117;53.622;9.958;2023-06-10T03:16:33;13.40;1.00
8152;DHT22;4117;53.622;9.958;2023-06-10T03:19:00;13.40;1.00
8152;DHT22;4117;53.622;9.958;2023-06-10T03:21:28;13.40;1.00
8152;DHT22;4117;53.622;9.958;2023-06-10T03:23:55;13.30;1.00
8152;DHT22;4117;53.622;9.958;2023-06-10T03:26:22;13.30;1.00
8152;DHT22;4117;53.622;9.958;2023-06-10T03:28:49;13.30;1.00
8152;DHT22;4117;53.622;9.958;2023-06-10T03:31:16;13.20;1.00
8152;DHT22;4117;53.622;9.958;2023-06-10T03:33:43;13.20;1.00
8152;DHT22;4117;53.622;9.958;2023-06-10T03:36:10;13.20;1.00
8152;DHT22;4117;53.622;9.958;2023-06-10T03:38:38;13.30;1.00
8152;DHT22;4117;53.622;9.958;2023-06-10T03:41:05;13.20;1.00
8152;DHT22;4117;53.622;9.958;2023-06-10T03:43:32;13.20;1.00
8152;DHT22;4117;53.622;9.958;2023-06-10T03:45:59;13.10;1.00
8152;DHT22;4117;53.622;9.958;2023-06-10T03:48:26;13.20;1.00
8152;DHT22;4117;53.622;9.958;2023-06-10T03:50:53;13.20;1.00
8152;DHT22;4117;53.622;9.958;2023-06-10T03:53:20;13.10;1.00
8152;DHT22;4117;53.622;9.958;2023-06-10T03:55:48;13.10;1.00
8152;DHT22;4117;53.622;9.958;2023-06-10T03:58:15;13.20;1.00
8152;DHT22;4117;53.622;9.958;2023-06-10T04:00:43;13.20;1.00
8152;DHT22;4117;53.622;9.958;2023-06-10T04:03:11;13.20;1.00
8152;DHT22;4117;53.622;9.958;2023-06-10T04:05:40;13.20;1.00
8152;DHT22;4117;53.622;9.958;2023-06-10T04:08:08;13.20;1.00
8152;DHT22;4117;53.622;9.958;2023-06-10T04:10:34;13.20;1.00
8152;DHT22;4117;53.622;9.958;2023-06-10T04:13:03;13.20;1.00
8152;DHT22;4117;53.622;9.958;2023-06-10T04:15:30;13.20;1.00
8152;DHT22;4117;53.622;9.958;2023-06-10T04:17:59;13.20;1.00
8152;DHT22;4117;53.622;9.958;2023-06-10T04:20:26;13.20;1.00
8152;DHT22;4117;53.622;9.958;2023-06-10T04:22:53;13.20;1.00
8152;DHT22;4117;53.622;9.958;2023-06-10T04:25:20;13.30;1.00
8152;DHT22;4117;53.622;9.958;2023-06-10T04:27:48;13.30;1.00
8152;DHT22;4117;53.622;9.958;2023-06-10T04:30:17;13.30;1.00
8152;DHT22;4117;53.622;9.958;2023-06-10T04:32:44;13.30;1.00
8152;DHT22;4117;53.622;9.958;2023-06-10T04:35:12;13.40;1.00
8152;DHT22;4117;53.622;9.958;2023-06-10T04:37:39;13.40;1.00
8152;DHT22;4117;53.622;9.958;2023-06-10T04:40:08;13.50;1.00
8152;DHT22;4117;53.622;9.958;2023-06-10T04:42:36;13.60;1.00
8152;DHT22;4117;53.622;9.958;2023-06-10T04:45:04;13.60;1.00
8152;DHT22;4117;53.622;9.958;2023-06-10T04:47:32;13.60;1.00
8152;DHT22;4117;53.622;9.958;2023-06-10T04:49:59;13.60;1.00
8152;DHT22;4117;53.622;9.958;2023-06-10T04:52:26;13.60;1.00
8152;DHT22;4117;53.622;9.958;2023-06-10T04:54:53;13.70;1.00
8152;DHT22;4117;53.622;9.958;2023-06-10T04:57:21;13.80;1.00
8152;DHT22;4117;53.622;9.958;2023-06-10T04:59:48;13.80;1.00
8152;DHT22;4117;53.622;9.958;2023-06-10T05:02:15;13.90;1.00
8152;DHT22;4117;53.622;9.958;2023-06-10T05:04:43;13.90;1.00
8152;DHT22;4117;53.622;9.958;2023-06-10T05:07:10;14.00;1.00
8152;DHT22;4117;53.622;9.958;2023-06-10T05:09:37;14.00;1.00
8152;DHT22;4117;53.622;9.958;2023-06-10T05:12:05;14.10;1.00
8152;DHT22;4117;53.622;9.958;2023-06-10T05:14:32;14.20;1.00
8152;DHT22;4117;53.622;9.958;2023-06-10T05:16:59;14.30;1.00
8152;DHT22;4117;53.622;9.958;2023-06-10T05:19:26;14.30;1.00
8152;DHT22;4117;53.622;9.958;2023-06-10T05:21:54;14.30;1.00
8152;DHT22;4117;53.622;9.958;2023-06-10T05:24:21;14.40;1.00
8152;DHT22;4117;53.622;9.958;2023-06-10T05:26:48;14.50;1.00
8152;DHT22;4117;53.622;9.958;2023-06-10T05:29:15;14.50;1.00
8152;DHT22;4117;53.622;9.958;2023-06-10T05:31:42;14.60;1.00
8152;DHT22;4117;53.622;9.958;2023-06-10T05:34:10;14.60;1.00
8152;DHT22;4117;53.622;9.958;2023-06-10T05:36:37;14.70;1.00
8152;DHT22;4117;53.622;9.958;2023-06-10T05:39:05;14.80;1.00
8152;DHT22;4117;53.622;9.958;2023-06-10T05:41:32;14.90;1.00
8152;DHT22;4117;53.622;9.958;2023-06-10T05:43:59;14.90;1.00
8152;DHT22;4117;53.622;9.958;2023-06-10T05:46:26;14.90;1.00
8152;DHT22;4117;53.622;9.958;2023-06-10T05:48:53;14.90;1.00
8152;DHT22;4117;53.622;9.958;2023-06-10T05:51:20;15.00;1.00
8152;DHT22;4117;53.622;9.958;2023-06-10T05:53:47;15.10;1.00
8152;DHT22;4117;53.622;9.958;2023-06-10T05:56:16;15.10;1.00
8152;DHT22;4117;53.622;9.958;2023-06-10T05:58:43;15.20;1.00
8152;DHT22;4117;53.622;9.958;2023-06-10T06:01:10;15.20;1.00
8152;DHT22;4117;53.622;9.958;2023-06-10T06:03:37;15.30;1.00
8152;DHT22;4117;53.622;9.958;2023-06-10T06:06:04;15.30;1.00
8152;DHT22;4117;53.622;9.958;2023-06-10T06:08:31;15.40;1.00
8152;DHT22;4117;53.622;9.958;2023-06-10T06:10:58;15.50;1.00
8152;DHT22;4117;53.622;9.958;2023-06-10T06:13:26;15.60;1.00
8152;DHT22;4117;53.622;9.958;2023-06-10T06:15:53;15.60;1.00
8152;DHT22;4117;53.622;9.958;2023-06-10T06:18:20;15.70;1.00
8152;DHT22;4117;53.622;9.958;2023-06-10T06:20:47;15.70;1.00
8152;DHT22;4117;53.622;9.958;2023-06-10T06:23:14;15.80;1.00
8152;DHT22;4117;53.622;9.958;2023-06-10T06:25:41;15.90;1.00
8152;DHT22;4117;53.622;9.958;2023-06-10T06:28:10;15.90;1.00
8152;DHT22;4117;53.622;9.958;2023-06-10T06:30:39;16.00;1.00
8152;DHT22;4117;53.622;9.958;2023-06-10T06:33:06;16.10;1.00
8152;DHT22;4117;53.622;9.958;2023-06-10T06:35:33;16.10;1.00
8152;DHT22;4117;53.622;9.958;2023-06-10T06:38:00;16.20;1.00
8152;DHT22;4117;53.622;9.958;2023-06-10T06:40:27;16.30;1.00
8152;DHT22;4117;53.622;9.958;2023-06-10T06:42:54;16.30;1.00
8152;DHT22;4117;53.622;9.958;2023-06-10T06:45:21;16.40;1.00
8152;DHT22;4117;53.622;9.958;2023-06-10T06:47:49;16.50;1.00
8152;DHT22;4117;53.622;9.958;2023-06-10T06:50:16;16.60;1.00
8152;DHT22;4117;53.622;9.958;2023-06-10T06:52:44;16.70;1.00
8152;DHT22;4117;53.622;9.958;2023-06-10T06:55:11;16.70;1.00
8152;DHT22;4117;53.622;9.958;2023-06-10T06:57:38;16.80;1.00
8152;DHT22;4117;53.622;9.958;2023-06-10T07:00:06;16.90;1.00
8152;DHT22;4117;53.622;9.958;2023-06-10T07:02:34;17.00;1.00
8152;DHT22;4117;53.622;9.958;2023-06-10T07:05:02;17.10;1.00
8152;DHT22;4117;53.622;9.958;2023-06-10T07:07:29;17.10;1.00
8152;DHT22;4117;53.622;9.958;2023-06-10T07:09:56;17.20;1.00
8152;DHT22;4117;53.622;9.958;2023-06-10T07:12:27;17.30;1.00
8152;DHT22;4117;53.622;9.958;2023-06-10T07:14:54;17.30;1.00
8152;DHT22;4117;53.622;9.958;2023-06-10T07:17:21;17.40;1.00
8152;DHT22;4117;53.622;9.958;2023-06-10T07:19:47;17.60;1.00
8152;DHT22;4117;53.622;9.958;2023-06-10T07:22:16;17.70;1.00
8152;DHT22;4117;53.622;9.958;2023-06-10T07:24:43;17.60;1.00
8152;DHT22;4117;53.622;9.958;2023-06-10T07:27:10;17.70;1.00
8152;DHT22;4117;53.622;9.958;2023-06-10T07:29:37;17.70;1.00
8152;DHT22;4117;53.622;9.958;2023-06-10T07:32:05;17.80;1.00
8152;DHT22;4117;53.622;9.958;2023-06-10T07:34:32;17.90;1.00
8152;DHT22;4117;53.622;9.958;2023-06-10T07:36:59;18.00;1.00
8152;DHT22;4117;53.622;9.958;2023-06-10T07:39:27;18.10;1.00
8152;DHT22;4117;53.622;9.958;2023-06-10T07:41:55;18.20;1.00
8152;DHT22;4117;53.622;9.958;2023-06-10T07:44:22;18.20;1.00
8152;DHT22;4117;53.622;9.958;2023-06-10T07:46:50;18.40;1.00
8152;DHT22;4117;53.622;9.958;2023-06-10T07:49:16;18.40;1.00
8152;DHT22;4117;53.622;9.958;2023-06-10T07:51:43;18.50;1.00
8152;DHT22;4117;53.622;9.958;2023-06-10T07:54:10;18.60;1.00
8152;DHT22;4117;53.622;9.958;2023-06-10T07:56:40;18.60;1.00
8152;DHT22;4117;53.622;9.958;2023-06-10T07:59:07;18.70;1.00
8152;DHT22;4117;53.622;9.958;2023-06-10T08:01:34;18.70;1.00
8152;DHT22;4117;53.622;9.958;2023-06-10T08:04:04;18.70;1.00
8152;DHT22;4117;53.622;9.958;2023-06-10T08:06:30;18.70;1.00
8152;DHT22;4117;53.622;9.958;2023-06-10T08:08:57;18.70;1.00
8152;DHT22;4117;53.622;9.958;2023-06-10T08:11:25;18.70;1.00
8152;DHT22;4117;53.622;9.958;2023-06-10T08:13:55;18.90;1.00
8152;DHT22;4117;53.622;9.958;2023-06-10T08:16:22;19.00;1.00
8152;DHT22;4117;53.622;9.958;2023-06-10T08:18:49;19.10;1.00
8152;DHT22;4117;53.622;9.958;2023-06-10T08:21:16;19.10;1.00
8152;DHT22;4117;53.622;9.958;2023-06-10T08:23:43;19.10;1.00
8152;DHT22;4117;53.622;9.958;2023-06-10T08:26:11;19.10;1.00
8152;DHT22;4117;53.622;9.958;2023-06-10T08:28:38;19.20;1.00
8152;DHT22;4117;53.622;9.958;2023-06-10T08:31:06;19.20;1.00
8152;DHT22;4117;53.622;9.958;2023-06-10T08:33:33;19.30;1.00
8152;DHT22;4117;53.622;9.958;2023-06-10T08:36:03;19.30;1.00
8152;DHT22;4117;53.622;9.958;2023-06-10T08:38:30;19.30;1.00
8152;DHT22;4117;53.622;9.958;2023-06-10T08:40:58;19.30;1.00
8152;DHT22;4117;53.622;9.958;2023-06-10T08:43:32;19.30;1.00
8152;DHT22;4117;53.622;9.958;2023-06-10T08:46:01;19.40;1.00
8152;DHT22;4117;53.622;9.958;2023-06-10T08:48:30;19.50;1.00
8152;DHT22;4117;53.622;9.958;2023-06-10T08:50:57;19.50;1.00
8152;DHT22;4117;53.622;9.958;2023-06-10T08:53:29;19.70;1.00
8152;DHT22;4117;53.622;9.958;2023-06-10T08:56:00;19.70;1.00
8152;DHT22;4117;53.622;9.958;2023-06-10T08:58:28;19.80;1.00
8152;DHT22;4117;53.622;9.958;2023-06-10T09:00:56;19.90;1.00
8152;DHT22;4117;53.622;9.958;2023-06-10T09:03:25;19.90;1.00
8152;DHT22;4117;53.622;9.958;2023-06-10T09:05:55;20.00;1.00
8152;DHT22;4117;53.622;9.958;2023-06-10T09:08:23;20.00;1.00
8152;DHT22;4117;53.622;9.958;2023-06-10T09:10:51;20.00;1.00
8152;DHT22;4117;53.622;9.958;2023-06-10T09:13:18;20.10;1.00
8152;DHT22;4117;53.622;9.958;2023-06-10T09:15:45;20.20;1.00
8152;DHT22;4117;53.622;9.958;2023-06-10T09:18:13;20.10;1.00
8152;DHT22;4117;53.622;9.958;2023-06-10T09:20:41;20.10;1.00
8152;DHT22;4117;53.622;9.958;2023-06-10T09:23:10;20.20;1.00
8152;DHT22;4117;53.622;9.958;2023-06-10T09:25:37;20.20;1.00
8152;DHT22;4117;53.622;9.958;2023-06-10T09:28:08;20.30;1.00
8152;DHT22;4117;53.622;9.958;2023-06-10T09:30:39;20.30;1.00
8152;DHT22;4117;53.622;9.958;2023-06-10T09:33:10;20.40;1.00
8152;DHT22;4117;53.622;9.958;2023-06-10T09:35:45;20.50;1.00
8152;DHT22;4117;53.622;9.958;2023-06-10T09:38:15;20.50;1.00
8152;DHT22;4117;53.622;9.958;2023-06-10T09:40:49;20.60;1.00
8152;DHT22;4117;53.622;9.958;2023-06-10T09:43:17;20.60;1.00
8152;DHT22;4117;53.622;9.958;2023-06-10T09:45:47;20.60;1.00
8152;DHT22;4117;53.622;9.958;2023-06-10T09:48:14;20.70;1.00
8152;DHT22;4117;53.622;9.958;2023-06-10T09:50:42;20.70;1.00
8152;DHT22;4117;53.622;9.958;2023-06-10T09:53:09;20.70;1.00
8152;DHT22;4117;53.622;9.958;2023-06-10T09:55:39;20.80;1.00
8152;DHT22;4117;53.622;9.958;2023-06-10T09:58:07;20.80;1.00
8152;DHT22;4117;53.622;9.958;2023-06-10T10:00:34;20.80;1.00
8152;DHT22;4117;53.622;9.958;2023-06-10T10:03:01;20.90;1.00
8152;DHT22;4117;53.622;9.958;2023-06-10T10:05:29;20.90;1.00
8152;DHT22;4117;53.622;9.958;2023-06-10T10:07:56;21.00;1.00
8152;DHT22;4117;53.622;9.958;2023-06-10T10:10:23;21.00;1.00
8152;DHT22;4117;53.622;9.958;2023-06-10T10:12:54;21.00;1.00
8152;DHT22;4117;53.622;9.958;2023-06-10T10:15:24;21.00;1.00
8152;DHT22;4117;53.622;9.958;2023-06-10T10:17:55;21.10;1.00
8152;DHT22;4117;53.622;9.958;2023-06-10T10:20:27;21.20;1.00
8152;DHT22;4117;53.622;9.958;2023-06-10T10:22:57;21.30;1.00
8152;DHT22;4117;53.622;9.958;2023-06-10T10:25:28;21.40;1.00
8152;DHT22;4117;53.622;9.958;2023-06-10T10:27:58;21.50;1.00
8152;DHT22;4117;53.622;9.958;2023-06-10T10:30:28;21.50;1.00
8152;DHT22;4117;53.622;9.958;2023-06-10T10:32:58;21.60;1.00
8152;DHT22;4117;53.622;9.958;2023-06-10T10:35:27;21.60;1.00
8152;DHT22;4117;53.622;9.958;2023-06-10T10:37:54;21.40;1.00
8152;DHT22;4117;53.622;9.958;2023-06-10T10:40:22;21.50;1.00
8152;DHT22;4117;53.622;9.958;2023-06-10T10:42:50;21.60;1.00
8152;DHT22;4117;53.622;9.958;2023-06-10T10:45:19;21.70;1.00
8152;DHT22;4117;53.622;9.958;2023-06-10T10:47:52;21.70;1.00
8152;DHT22;4117;53.622;9.958;2023-06-10T10:50:22;21.60;1.00
8152;DHT22;4117;53.622;9.958;2023-06-10T10:52:54;21.80;1.00
8152;DHT22;4117;53.622;9.958;2023-06-10T10:55:22;21.90;1.00
8152;DHT22;4117;53.622;9.958;2023-06-10T10:57:56;21.90;1.00
8152;DHT22;4117;53.622;9.958;2023-06-10T11:00:32;21.90;1.00
8152;DHT22;4117;53.622;9.958;2023-06-10T11:03:04;21.90;1.00
8152;DHT22;4117;53.622;9.958;2023-06-10T11:05:35;22.00;1.00
8152;DHT22;4117;53.622;9.958;2023-06-10T11:08:03;22.10;1.00
8152;DHT22;4117;53.622;9.958;2023-06-10T11:10:31;22.10;1.00
8152;DHT22;4117;53.622;9.958;2023-06-10T11:12:58;22.10;1.00
8152;DHT22;4117;53.622;9.958;2023-06-10T11:15:26;22.10;1.00
8152;DHT22;4117;53.622;9.958;2023-06-10T11:18:20;22.10;1.00
8152;DHT22;4117;53.622;9.958;2023-06-10T11:21:00;22.20;1.00
8152;DHT22;4117;53.622;9.958;2023-06-10T11:23:39;22.20;1.00
8152;DHT22;4117;53.622;9.958;2023-06-10T11:26:30;22.30;1.00
8152;DHT22;4117;53.622;9.958;2023-06-10T11:29:05;22.30;1.00
8152;DHT22;4117;53.622;9.958;2023-06-10T11:31:39;22.30;1.00
8152;DHT22;4117;53.622;9.958;2023-06-10T11:34:08;22.40;1.00
8152;DHT22;4117;53.622;9.958;2023-06-10T11:36:37;22.50;1.00
8152;DHT22;4117;53.622;9.958;2023-06-10T11:39:06;22.50;1.00
8152;DHT22;4117;53.622;9.958;2023-06-10T11:41:35;22.60;1.00
8152;DHT22;4117;53.622;9.958;2023-06-10T11:44:05;22.70;1.00
8152;DHT22;4117;53.622;9.958;2023-06-10T11:46:34;22.70;1.00
8152;DHT22;4117;53.622;9.958;2023-06-10T11:49:01;22.70;1.00
8152;DHT22;4117;53.622;9.958;2023-06-10T11:51:33;22.80;1.00
8152;DHT22;4117;53.622;9.958;2023-06-10T11:54:01;23.00;1.00
8152;DHT22;4117;53.622;9.958;2023-06-10T11:56:29;22.90;1.00
8152;DHT22;4117;53.622;9.958;2023-06-10T11:58:57;23.00;1.00
8152;DHT22;4117;53.622;9.958;2023-06-10T12:01:27;23.00;1.00
8152;DHT22;4117;53.622;9.958;2023-06-10T12:04:01;23.10;1.00
8152;DHT22;4117;53.622;9.958;2023-06-10T12:06:39;23.20;1.00
8152;DHT22;4117;53.622;9.958;2023-06-10T12:09:06;23.20;1.00
8152;DHT22;4117;53.622;9.958;2023-06-10T12:11:34;23.30;1.00
8152;DHT22;4117;53.622;9.958;2023-06-10T12:14:01;23.30;1.00
8152;DHT22;4117;53.622;9.958;2023-06-10T12:16:29;23.30;1.00
8152;DHT22;4117;53.622;9.958;2023-06-10T12:19:01;23.40;1.00
8152;DHT22;4117;53.622;9.958;2023-06-10T12:21:29;23.50;1.00
8152;DHT22;4117;53.622;9.958;2023-06-10T12:24:05;23.50;1.00
8152;DHT22;4117;53.622;9.958;2023-06-10T12:26:37;23.50;1.00
8152;DHT22;4117;53.622;9.958;2023-06-10T12:29:21;23.60;1.00
8152;DHT22;4117;53.622;9.958;2023-06-10T12:31:58;23.70;1.00
8152;DHT22;4117;53.622;9.958;2023-06-10T12:34:33;23.80;1.00
8152;DHT22;4117;53.622;9.958;2023-06-10T12:37:00;23.80;1.00
8152;DHT22;4117;53.622;9.958;2023-06-10T12:39:28;23.80;1.00
8152;DHT22;4117;53.622;9.958;2023-06-10T12:41:55;23.80;1.00
8152;DHT22;4117;53.622;9.958;2023-06-10T12:44:30;23.90;1.00
8152;DHT22;4117;53.622;9.958;2023-06-10T12:46:57;23.90;1.00
8152;DHT22;4117;53.622;9.958;2023-06-10T12:49:24;24.00;1.00
8152;DHT22;4117;53.622;9.958;2023-06-10T12:51:52;24.10;1.00
8152;DHT22;4117;53.622;9.958;2023-06-10T12:54:19;24.00;1.00
8152;DHT22;4117;53.622;9.958;2023-06-10T12:56:47;24.20;1.00
8152;DHT22;4117;53.622;9.958;2023-06-10T12:59:14;24.20;1.00
8152;DHT22;4117;53.622;9.958;2023-06-10T13:01:41;24.20;1.00
8152;DHT22;4117;53.622;9.958;2023-06-10T13:04:08;24.30;1.00
8152;DHT22;4117;53.622;9.958;2023-06-10T13:06:36;24.40;1.00
8152;DHT22;4117;53.622;9.958;2023-06-10T13:09:05;24.30;1.00
8152;DHT22;4117;53.622;9.958;2023-06-10T13:11:34;24.30;1.00
8152;DHT22;4117;53.622;9.958;2023-06-10T13:14:04;24.20;1.00
8152;DHT22;4117;53.622;9.958;2023-06-10T13:16:32;24.30;1.00
8152;DHT22;4117;53.622;9.958;2023-06-10T13:18:59;24.40;1.00
8152;DHT22;4117;53.622;9.958;2023-06-10T13:21:26;24.40;1.00
8152;DHT22;4117;53.622;9.958;2023-06-10T13:23:53;24.50;1.00
8152;DHT22;4117;53.622;9.958;2023-06-10T13:26:20;24.50;1.00
8152;DHT22;4117;53.622;9.958;2023-06-10T13:28:47;24.50;1.00
8152;DHT22;4117;53.622;9.958;2023-06-10T13:31:15;24.60;1.00
8152;DHT22;4117;53.622;9.958;2023-06-10T13:33:42;24.70;1.00
8152;DHT22;4117;53.622;9.958;2023-06-10T13:36:10;24.60;1.00
8152;DHT22;4117;53.622;9.958;2023-06-10T13:38:38;24.70;1.00
8152;DHT22;4117;53.622;9.958;2023-06-10T13:41:05;24.70;1.00
8152;DHT22;4117;53.622;9.958;2023-06-10T13:43:32;24.60;1.00
8152;DHT22;4117;53.622;9.958;2023-06-10T13:45:59;24.70;1.00
8152;DHT22;4117;53.622;9.958;2023-06-10T13:48:27;24.70;1.00
8152;DHT22;4117;53.622;9.958;2023-06-10T13:50:54;24.70;1.00
8152;DHT22;4117;53.622;9.958;2023-06-10T13:53:22;24.70;1.00
8152;DHT22;4117;53.622;9.958;2023-06-10T13:55:49;24.80;1.00
8152;DHT22;4117;53.622;9.958;2023-06-10T13:58:16;24.70;1.00
8152;DHT22;4117;53.622;9.958;2023-06-10T14:00:43;24.70;1.00
8152;DHT22;4117;53.622;9.958;2023-06-10T14:03:10;24.70;1.00
8152;DHT22;4117;53.622;9.958;2023-06-10T14:05:38;24.80;1.00
8152;DHT22;4117;53.622;9.958;2023-06-10T14:08:05;24.70;1.00
8152;DHT22;4117;53.622;9.958;2023-06-10T14:10:33;24.70;1.00
8152;DHT22;4117;53.622;9.958;2023-06-10T14:13:00;24.70;1.00
8152;DHT22;4117;53.622;9.958;2023-06-10T14:15:27;24.70;1.00
8152;DHT22;4117;53.622;9.958;2023-06-10T14:17:54;24.70;1.00
8152;DHT22;4117;53.622;9.958;2023-06-10T14:20:21;24.70;1.00
8152;DHT22;4117;53.622;9.958;2023-06-10T14:22:50;24.70;1.00
8152;DHT22;4117;53.622;9.958;2023-06-10T14:25:17;24.70;1.00
8152;DHT22;4117;53.622;9.958;2023-06-10T14:27:44;24.80;1.00
8152;DHT22;4117;53.622;9.958;2023-06-10T14:30:13;24.70;1.00
8152;DHT22;4117;53.622;9.958;2023-06-10T14:32:40;24.80;1.00
8152;DHT22;4117;53.622;9.958;2023-06-10T14:35:07;24.80;1.00
8152;DHT22;4117;53.622;9.958;2023-06-10T14:37:34;24.70;1.00
8152;DHT22;4117;53.622;9.958;2023-06-10T14:40:03;24.70;1.00
8152;DHT22;4117;53.622;9.958;2023-06-10T14:42:30;24.80;1.00
8152;DHT22;4117;53.622;9.958;2023-06-10T14:44:57;24.80;1.00
8152;DHT22;4117;53.622;9.958;2023-06-10T14:47:24;24.80;1.00
8152;DHT22;4117;53.622;9.958;2023-06-10T14:49:51;24.80;1.00
8152;DHT22;4117;53.622;9.958;2023-06-10T14:52:18;24.90;1.00
8152;DHT22;4117;53.622;9.958;2023-06-10T14:54:45;24.80;1.00
8152;DHT22;4117;53.622;9.958;2023-06-10T14:57:13;24.80;1.00
8152;DHT22;4117;53.622;9.958;2023-06-10T14:59:40;24.80;1.00
8152;DHT22;4117;53.622;9.958;2023-06-10T15:02:07;24.80;1.00
8152;DHT22;4117;53.622;9.958;2023-06-10T15:04:34;24.90;1.00
8152;DHT22;4117;53.622;9.958;2023-06-10T15:07:01;24.90;1.00
8152;DHT22;4117;53.622;9.958;2023-06-10T15:09:28;24.80;1.00
8152;DHT22;4117;53.622;9.958;2023-06-10T15:11:55;24.70;1.00
8152;DHT22;4117;53.622;9.958;2023-06-10T15:14:23;24.80;1.00
8152;DHT22;4117;53.622;9.958;2023-06-10T15:16:51;24.80;1.00
8152;DHT22;4117;53.622;9.958;2023-06-10T15:19:18;24.80;1.00
8152;DHT22;4117;53.622;9.958;2023-06-10T15:21:45;24.70;1.00
8152;DHT22;4117;53.622;9.958;2023-06-10T15:24:12;24.70;1.00
8152;DHT22;4117;53.622;9.958;2023-06-10T15:26:39;24.60;1.00
8152;DHT22;4117;53.622;9.958;2023-06-10T15:29:06;24.50;1.00
8152;DHT22;4117;53.622;9.958;2023-06-10T15:31:34;24.60;1.00
8152;DHT22;4117;53.622;9.958;2023-06-10T15:34:02;24.50;1.00
8152;DHT22;4117;53.622;9.958;2023-06-10T15:36:29;24.60;1.00
8152;DHT22;4117;53.622;9.958;2023-06-10T15:39:01;24.50;1.00
8152;DHT22;4117;53.622;9.958;2023-06-10T15:41:29;24.50;1.00
8152;DHT22;4117;53.622;9.958;2023-06-10T15:43:56;24.50;1.00
8152;DHT22;4117;53.622;9.958;2023-06-10T15:46:25;24.40;1.00
8152;DHT22;4117;53.622;9.958;2023-06-10T15:48:53;24.40;1.00
8152;DHT22;4117;53.622;9.958;2023-06-10T15:51:21;24.40;1.00
8152;DHT22;4117;53.622;9.958;2023-06-10T15:53:48;24.40;1.00
8152;DHT22;4117;53.622;9.958;2023-06-10T15:56:16;24.30;1.00
8152;DHT22;4117;53.622;9.958;2023-06-10T15:58:42;24.20;1.00
8152;DHT22;4117;53.622;9.958;2023-06-10T16:01:09;24.20;1.00
8152;DHT22;4117;53.622;9.958;2023-06-10T16:03:37;24.20;1.00
8152;DHT22;4117;53.622;9.958;2023-06-10T16:06:05;24.20;1.00
8152;DHT22;4117;53.622;9.958;2023-06-10T16:08:33;24.10;1.00
8152;DHT22;4117;53.622;9.958;2023-06-10T16:11:00;24.10;1.00
8152;DHT22;4117;53.622;9.958;2023-06-10T16:13:27;24.10;1.00
8152;DHT22;4117;53.622;9.958;2023-06-10T16:15:54;24.10;1.00
8152;DHT22;4117;53.622;9.958;2023-06-10T16:18:21;24.10;1.00
8152;DHT22;4117;53.622;9.958;2023-06-10T16:20:48;24.00;1.00
8152;DHT22;4117;53.622;9.958;2023-06-10T16:23:16;24.00;1.00